sensor_id;sensor_type;location;lat;lon;timestamp;pressure;altitude;pressure_sealevel;temperature;humidity
10806;BME280;5455;53.224;6.000;2023-07-24T00:00:21;100266.00;;;17.93;100.00
10806;BME280;5455;53.224;6.000;2023-07-24T00:02:48;100271.19;;;17.91;100.00
10806;BME280;5455;53.224;6.000;2023-07-24T00:05:16;100266.94;;;17.83;100.00
10806;BME280;5455;53.224;6.000;2023-07-24T00:07:44;100264.31;;;17.72;100.00
10806;BME280;5455;53.224;6.000;2023-07-24T00:10:11;100261.94;;;17.71;100.00
10806;BME280;5455;53.224;6.000;2023-07-24T00:12:38;100265.78;;;17.80;100.00
10806;BME280;5455;53.224;6.000;2023-07-24T00:15:06;100256.72;;;17.73;100.00
10806;BME280;5455;53.224;6.000;2023-07-24T00:17:33;100264.69;;;17.74;100.00
10806;BME280;5455;53.224;6.000;2023-07-24T00:20:00;100261.41;;;17.79;100.00
10806;BME280;5455;53.224;6.000;2023-07-24T00:22:28;100262.31;;;17.73;100.00
10806;BME280;5455;53.224;6.000;2023-07-24T00:24:55;100248.47;;;17.92;100.00
10806;BME280;5455;53.224;6.000;2023-07-24T00:27:23;100242.69;;;17.80;100.00
10806;BME280;5455;53.224;6.000;2023-07-24T00:29:50;100242.31;;;17.78;100.00
10806;BME280;5455;53.224;6.000;2023-07-24T00:32:17;100235.22;;;17.73;100.00
10806;BME280;5455;53.224;6.000;2023-07-24T00:34:45;100242.84;;;17.69;100.00
10806;BME280;5455;53.224;6.000;2023-07-24T00:37:12;100245.56;;;17.73;100.00
10806;BME280;5455;53.224;6.000;2023-07-24T00:39:39;100251.69;;;17.64;100.00
10806;BME280;5455;53.224;6.000;2023-07-24T00:42:07;100254.16;;;17.58;100.00
10806;BME280;5455;53.224;6.000;2023-07-24T00:44:34;100249.84;;;17.54;100.00
10806;BME280;5455;53.224;6.000;2023-07-24T00:47:01;100259.81;;;17.51;100.00
10806;BME280;5455;53.224;6.000;2023-07-24T00:49:28;100250.25;;;17.52;100.00
10806;BME280;5455;53.224;6.000;2023-07-24T00:51:55;100243.56;;;17.46;100.00
10806;BME280;5455;53.224;6.000;2023-07-24T00:54:27;100249.56;;;17.45;100.00
10806;BME280;5455;53.224;6.000;2023-07-24T00:56:58;100246.38;;;17.43;100.00
10806;BME280;5455;53.224;6.000;2023-07-24T00:59:26;100244.41;;;17.43;100.00
10806;BME280;5455;53.224;6.000;2023-07-24T01:01:53;100232.13;;;17.37;100.00
10806;BME280;5455;53.224;6.000;2023-07-24T01:04:22;100231.78;;;17.35;100.00
10806;BME280;5455;53.224;6.000;2023-07-24T01:06:51;100232.66;;;17.29;100.00
10806;BME280;5455;53.224;6.000;2023-07-24T01:09:18;100230.31;;;17.27;100.00
10806;BME280;5455;53.224;6.000;2023-07-24T01:14:57;100229.88;;;17.29;100.00
10806;BME280;5455;53.224;6.000;2023-07-24T01:17:27;100232.66;;;17.29;100.00
10806;BME280;5455;53.224;6.000;2023-07-24T01:19:58;100238.69;;;17.27;100.00
10806;BME280;5455;53.224;6.000;2023-07-24T01:26:07;100235.63;;;17.18;100.00
10806;BME280;5455;53.224;6.000;2023-07-24T01:28:09;100231.72;;;17.12;100.00
10806;BME280;5455;53.224;6.000;2023-07-24T01:30:36;100234.06;;;17.14;100.00
10806;BME280;5455;53.224;6.000;2023-07-24T01:33:03;100232.03;;;17.18;100.00
10806;BME280;5455;53.224;6.000;2023-07-24T01:35:31;100239.88;;;17.26;100.00
10806;BME280;5455;53.224;6.000;2023-07-24T01:38:00;100233.38;;;17.36;100.00
10806;BME280;5455;53.224;6.000;2023-07-24T01:40:29;100228.03;;;17.45;100.00
10806;BME280;5455;53.224;6.000;2023-07-24T01:42:58;100226.00;;;17.49;100.00
10806;BME280;5455;53.224;6.000;2023-07-24T01:45:27;100208.47;;;17.49;100.00
10806;BME280;5455;53.224;6.000;2023-07-24T01:47:55;100212.41;;;17.51;100.00
10806;BME280;5455;53.224;6.000;2023-07-24T01:50:22;100204.81;;;17.55;100.00
10806;BME280;5455;53.224;6.000;2023-07-24T01:52:49;100210.34;;;17.59;100.00
10806;BME280;5455;53.224;6.000;2023-07-24T01:55:17;100203.09;;;17.65;100.00
10806;BME280;5455;53.224;6.000;2023-07-24T01:57:44;100203.88;;;17.66;100.00
10806;BME280;5455;53.224;6.000;2023-07-24T02:00:12;100209.06;;;17.63;100.00
10806;BME280;5455;53.224;6.000;2023-07-24T02:02:39;100196.31;;;17.66;100.00
10806;BME280;5455;53.224;6.000;2023-07-24T02:05:07;100204.66;;;17.66;100.00
10806;BME280;5455;53.224;6.000;2023-07-24T02:07:34;100197.06;;;17.67;100.00
10806;BME280;5455;53.224;6.000;2023-07-24T02:10:01;100199.75;;;17.74;100.00
10806;BME280;5455;53.224;6.000;2023-07-24T02:12:29;100191.09;;;17.68;100.00
10806;BME280;5455;53.224;6.000;2023-07-24T02:14:56;100191.75;;;17.76;100.00
10806;BME280;5455;53.224;6.000;2023-07-24T02:17:24;100194.53;;;17.76;100.00
10806;BME280;5455;53.224;6.000;2023-07-24T02:19:53;100197.31;;;17.76;100.00
10806;BME280;5455;53.224;6.000;2023-07-24T02:22:20;100199.69;;;17.77;100.00
10806;BME280;5455;53.224;6.000;2023-07-24T02:24:48;100198.41;;;17.82;100.00
10806;BME280;5455;53.224;6.000;2023-07-24T02:27:27;100186.06;;;17.83;100.00
10806;BME280;5455;53.224;6.000;2023-07-24T02:29:57;100180.53;;;17.79;100.00
10806;BME280;5455;53.224;6.000;2023-07-24T02:32:25;100173.75;;;17.80;100.00
10806;BME280;5455;53.224;6.000;2023-07-24T02:34:52;100177.69;;;17.83;100.00
10806;BME280;5455;53.224;6.000;2023-07-24T02:37:20;100172.09;;;17.83;100.00
10806;BME280;5455;53.224;6.000;2023-07-24T02:39:47;100173.31;;;17.82;100.00
10806;BME280;5455;53.224;6.000;2023-07-24T02:42:14;100171.75;;;17.81;100.00
10806;BME280;5455;53.224;6.000;2023-07-24T02:44:43;100174.84;;;17.86;100.00
10806;BME280;5455;53.224;6.000;2023-07-24T02:47:10;100177.69;;;17.83;100.00
10806;BME280;5455;53.224;6.000;2023-07-24T02:49:38;100178.47;;;17.83;100.00
10806;BME280;5455;53.224;6.000;2023-07-24T02:52:05;100172.53;;;17.81;100.00
10806;BME280;5455;53.224;6.000;2023-07-24T02:54:32;100174.91;;;17.83;100.00
10806;BME280;5455;53.224;6.000;2023-07-24T02:56:59;100180.72;;;17.92;100.00
10806;BME280;5455;53.224;6.000;2023-07-24T02:59:27;100167.22;;;17.90;100.00
10806;BME280;5455;53.224;6.000;2023-07-24T03:01:55;100167.69;;;17.85;100.00
10806;BME280;5455;53.224;6.000;2023-07-24T03:04:23;100170.91;;;17.84;100.00
10806;BME280;5455;53.224;6.000;2023-07-24T03:06:50;100180.81;;;17.85;100.00
10806;BME280;5455;53.224;6.000;2023-07-24T03:09:18;100187.94;;;17.89;100.00
10806;BME280;5455;53.224;6.000;2023-07-24T03:11:45;100194.72;;;17.88;100.00
10806;BME280;5455;53.224;6.000;2023-07-24T03:14:12;100187.16;;;17.89;100.00
10806;BME280;5455;53.224;6.000;2023-07-24T03:16:39;100183.56;;;17.88;100.00
10806;BME280;5455;53.224;6.000;2023-07-24T03:19:06;100162.84;;;17.89;100.00
10806;BME280;5455;53.224;6.000;2023-07-24T03:21:34;100165.19;;;17.91;100.00
10806;BME280;5455;53.224;6.000;2023-07-24T03:24:01;100164.88;;;17.85;100.00
10806;BME280;5455;53.224;6.000;2023-07-24T03:26:29;100168.47;;;17.86;100.00
10806;BME280;5455;53.224;6.000;2023-07-24T03:28:56;100170.84;;;17.87;100.00
10806;BME280;5455;53.224;6.000;2023-07-24T03:31:24;100176.84;;;17.86;100.00
10806;BME280;5455;53.224;6.000;2023-07-24T03:33:51;100185.16;;;17.89;100.00
10806;BME280;5455;53.224;6.000;2023-07-24T03:36:19;100175.50;;;17.94;100.00
10806;BME280;5455;53.224;6.000;2023-07-24T03:38:50;100177.56;;;17.90;100.00
10806;BME280;5455;53.224;6.000;2023-07-24T03:41:18;100181.88;;;17.94;100.00
10806;BME280;5455;53.224;6.000;2023-07-24T03:43:45;100178.28;;;17.94;100.00
10806;BME280;5455;53.224;6.000;2023-07-24T03:46:13;100173.94;;;17.93;100.00
10806;BME280;5455;53.224;6.000;2023-07-24T03:48:41;100184.25;;;17.96;100.00
10806;BME280;5455;53.224;6.000;2023-07-24T03:51:08;100178.59;;;17.99;100.00
10806;BME280;5455;53.224;6.000;2023-07-24T03:53:35;100174.16;;;18.02;100.00
10806;BME280;5455;53.224;6.000;2023-07-24T03:56:03;100180.91;;;18.04;100.00
10806;BME280;5455;53.224;6.000;2023-07-24T03:58:30;100175.81;;;17.99;100.00
10806;BME280;5455;53.224;6.000;2023-07-24T04:00:58;100184.19;;;17.99;100.00
10806;BME280;5455;53.224;6.000;2023-07-24T04:03:25;100187.75;;;18.00;100.00
10806;BME280;5455;53.224;6.000;2023-07-24T04:05:53;100186.88;;;18.03;100.00
10806;BME280;5455;53.224;6.000;2023-07-24T04:08:21;100177.66;;;18.06;100.00
10806;BME280;5455;53.224;6.000;2023-07-24T04:10:49;100159.00;;;18.03;100.00
10806;BME280;5455;53.224;6.000;2023-07-24T04:13:16;100156.63;;;18.01;100.00
10806;BME280;5455;53.224;6.000;2023-07-24T04:15:43;100175.31;;;18.04;100.00
10806;BME280;5455;53.224;6.000;2023-07-24T04:18:11;100167.28;;;18.06;100.00
10806;BME280;5455;53.224;6.000;2023-07-24T04:20:38;100157.06;;;18.00;100.00
10806;BME280;5455;53.224;6.000;2023-07-24T04:23:06;100147.34;;;18.08;100.00
10806;BME280;5455;53.224;6.000;2023-07-24T04:25:34;100156.53;;;18.08;100.00
10806;BME280;5455;53.224;6.000;2023-07-24T04:28:01;100162.09;;;18.08;100.00
10806;BME280;5455;53.224;6.000;2023-07-24T04:30:28;100165.25;;;18.10;100.00
10806;BME280;5455;53.224;6.000;2023-07-24T04:32:56;100160.06;;;18.09;100.00
10806;BME280;5455;53.224;6.000;2023-07-24T04:35:24;100151.00;;;18.05;100.00
10806;BME280;5455;53.224;6.000;2023-07-24T04:37:52;100158.13;;;18.06;100.00
10806;BME280;5455;53.224;6.000;2023-07-24T04:40:19;100164.94;;;18.05;100.00
10806;BME280;5455;53.224;6.000;2023-07-24T04:42:46;100162.00;;;18.12;100.00
10806;BME280;5455;53.224;6.000;2023-07-24T04:45:13;100177.53;;;18.13;100.00
10806;BME280;5455;53.224;6.000;2023-07-24T04:47:40;100177.97;;;18.11;100.00
10806;BME280;5455;53.224;6.000;2023-07-24T04:50:09;100160.44;;;18.11;100.00
10806;BME280;5455;53.224;6.000;2023-07-24T04:52:36;100166.31;;;18.16;100.00
10806;BME280;5455;53.224;6.000;2023-07-24T04:55:04;100157.22;;;18.12;100.00
10806;BME280;5455;53.224;6.000;2023-07-24T04:57:31;100159.22;;;18.12;100.00
10806;BME280;5455;53.224;6.000;2023-07-24T04:59:58;100161.09;;;18.18;100.00
10806;BME280;5455;53.224;6.000;2023-07-24T05:02:25;100168.19;;;18.23;100.00
10806;BME280;5455;53.224;6.000;2023-07-24T05:04:53;100147.88;;;18.23;100.00
10806;BME280;5455;53.224;6.000;2023-07-24T05:07:21;100149.00;;;18.25;100.00
10806;BME280;5455;53.224;6.000;2023-07-24T05:09:48;100149.28;;;18.31;100.00
10806;BME280;5455;53.224;6.000;2023-07-24T05:12:16;100154.88;;;18.31;100.00
10806;BME280;5455;53.224;6.000;2023-07-24T05:14:43;100147.66;;;18.33;100.00
10806;BME280;5455;53.224;6.000;2023-07-24T05:17:10;100149.28;;;18.31;100.00
10806;BME280;5455;53.224;6.000;2023-07-24T05:19:37;100148.22;;;18.25;100.00
10806;BME280;5455;53.224;6.000;2023-07-24T05:22:04;100146.78;;;18.16;100.00
10806;BME280;5455;53.224;6.000;2023-07-24T05:24:32;100151.59;;;18.16;100.00
10806;BME280;5455;53.224;6.000;2023-07-24T05:26:59;100148.78;;;18.16;100.00
10806;BME280;5455;53.224;6.000;2023-07-24T05:29:28;100159.59;;;18.14;100.00
10806;BME280;5455;53.224;6.000;2023-07-24T05:31:55;100152.78;;;18.15;100.00
10806;BME280;5455;53.224;6.000;2023-07-24T05:34:23;100156.88;;;18.10;100.00
10806;BME280;5455;53.224;6.000;2023-07-24T05:36:50;100154.38;;;18.16;100.00
10806;BME280;5455;53.224;6.000;2023-07-24T05:39:18;100150.78;;;18.15;100.00
10806;BME280;5455;53.224;6.000;2023-07-24T05:41:47;100146.63;;;18.24;100.00
10806;BME280;5455;53.224;6.000;2023-07-24T05:44:15;100143.50;;;18.22;100.00
10806;BME280;5455;53.224;6.000;2023-07-24T05:46:42;100150.94;;;18.28;100.00
10806;BME280;5455;53.224;6.000;2023-07-24T05:49:09;100142.00;;;18.37;100.00
10806;BME280;5455;53.224;6.000;2023-07-24T05:51:36;100144.91;;;18.53;100.00
10806;BME280;5455;53.224;6.000;2023-07-24T05:54:03;100138.88;;;18.74;100.00
10806;BME280;5455;53.224;6.000;2023-07-24T05:56:30;100138.69;;;18.81;100.00
10806;BME280;5455;53.224;6.000;2023-07-24T05:58:58;100142.88;;;18.73;100.00
10806;BME280;5455;53.224;6.000;2023-07-24T06:01:25;100143.31;;;18.72;100.00
10806;BME280;5455;53.224;6.000;2023-07-24T06:03:53;100136.16;;;18.70;100.00
10806;BME280;5455;53.224;6.000;2023-07-24T06:06:21;100137.50;;;18.82;100.00
10806;BME280;5455;53.224;6.000;2023-07-24T06:08:48;100134.81;;;18.95;100.00
10806;BME280;5455;53.224;6.000;2023-07-24T06:11:17;100140.88;;;19.09;100.00
10806;BME280;5455;53.224;6.000;2023-07-24T06:13:45;100133.28;;;19.10;100.00
10806;BME280;5455;53.224;6.000;2023-07-24T06:16:12;100135.81;;;19.04;100.00
10806;BME280;5455;53.224;6.000;2023-07-24T06:18:40;100135.03;;;19.04;100.00
10806;BME280;5455;53.224;6.000;2023-07-24T06:21:09;100130.03;;;19.11;100.00
10806;BME280;5455;53.224;6.000;2023-07-24T06:23:37;100145.50;;;19.32;100.00
10806;BME280;5455;53.224;6.000;2023-07-24T06:26:05;100136.47;;;19.60;100.00
10806;BME280;5455;53.224;6.000;2023-07-24T06:28:37;100132.44;;;19.77;100.00
10806;BME280;5455;53.224;6.000;2023-07-24T06:31:04;100136.81;;;19.95;100.00
10806;BME280;5455;53.224;6.000;2023-07-24T06:33:31;100144.16;;;20.17;100.00
10806;BME280;5455;53.224;6.000;2023-07-24T06:35:58;100143.88;;;20.28;100.00
10806;BME280;5455;53.224;6.000;2023-07-24T06:38:25;100153.00;;;20.32;100.00
10806;BME280;5455;53.224;6.000;2023-07-24T06:40:53;100151.06;;;20.29;100.00
10806;BME280;5455;53.224;6.000;2023-07-24T06:43:21;100155.44;;;20.30;100.00
10806;BME280;5455;53.224;6.000;2023-07-24T06:45:48;100160.41;;;20.39;100.00
10806;BME280;5455;53.224;6.000;2023-07-24T06:48:15;100165.38;;;20.47;100.00
10806;BME280;5455;53.224;6.000;2023-07-24T06:50:43;100155.94;;;20.41;100.00
10806;BME280;5455;53.224;6.000;2023-07-24T06:53:10;100161.53;;;20.41;100.00
10806;BME280;5455;53.224;6.000;2023-07-24T06:55:38;100159.56;;;20.54;100.00
10806;BME280;5455;53.224;6.000;2023-07-24T06:58:05;100164.19;;;20.61;100.00
10806;BME280;5455;53.224;6.000;2023-07-24T07:00:32;100165.19;;;20.54;100.00
10806;BME280;5455;53.224;6.000;2023-07-24T07:02:59;100159.63;;;20.38;100.00
10806;BME280;5455;53.224;6.000;2023-07-24T07:05:27;100169.78;;;20.16;100.00
10806;BME280;5455;53.224;6.000;2023-07-24T07:07:55;100167.53;;;20.27;100.00
10806;BME280;5455;53.224;6.000;2023-07-24T07:10:23;100174.63;;;20.15;100.00
10806;BME280;5455;53.224;6.000;2023-07-24T07:12:50;100170.16;;;20.02;100.00
10806;BME280;5455;53.224;6.000;2023-07-24T07:15:17;100166.34;;;19.96;100.00
10806;BME280;5455;53.224;6.000;2023-07-24T07:17:44;100165.81;;;20.01;100.00
10806;BME280;5455;53.224;6.000;2023-07-24T07:20:11;100168.97;;;20.03;100.00
10806;BME280;5455;53.224;6.000;2023-07-24T07:22:38;100167.25;;;20.21;100.00
10806;BME280;5455;53.224;6.000;2023-07-24T07:25:06;100160.59;;;20.31;100.00
10806;BME280;5455;53.224;6.000;2023-07-24T07:27:33;100159.22;;;20.52;100.00
10806;BME280;5455;53.224;6.000;2023-07-24T07:30:00;100164.28;;;20.70;100.00
10806;BME280;5455;53.224;6.000;2023-07-24T07:32:28;100158.25;;;20.71;100.00
10806;BME280;5455;53.224;6.000;2023-07-24T07:34:55;100157.84;;;20.85;100.00
10806;BME280;5455;53.224;6.000;2023-07-24T07:37:23;100154.94;;;21.02;100.00
10806;BME280;5455;53.224;6.000;2023-07-24T07:39:50;100154.38;;;20.94;100.00
10806;BME280;5455;53.224;6.000;2023-07-24T07:42:18;100164.47;;;20.92;100.00
10806;BME280;5455;53.224;6.000;2023-07-24T07:44:45;100159.47;;;21.12;100.00
10806;BME280;5455;53.224;6.000;2023-07-24T07:47:13;100160.72;;;21.11;100.00
10806;BME280;5455;53.224;6.000;2023-07-24T07:49:40;100157.81;;;21.14;100.00
10806;BME280;5455;53.224;6.000;2023-07-24T07:52:09;100149.94;;;21.22;100.00
10806;BME280;5455;53.224;6.000;2023-07-24T07:54:36;100160.47;;;21.43;100.00
10806;BME280;5455;53.224;6.000;2023-07-24T07:57:04;100160.81;;;21.20;100.00
10806;BME280;5455;53.224;6.000;2023-07-24T07:59:31;100155.66;;;21.18;100.00
10806;BME280;5455;53.224;6.000;2023-07-24T08:02:00;100158.78;;;21.46;100.00
10806;BME280;5455;53.224;6.000;2023-07-24T08:04:28;100160.38;;;21.34;100.00
10806;BME280;5455;53.224;6.000;2023-07-24T08:06:55;100161.41;;;21.15;100.00
10806;BME280;5455;53.224;6.000;2023-07-24T08:09:23;100157.97;;;20.95;100.00
10806;BME280;5455;53.224;6.000;2023-07-24T08:11:51;100152.97;;;21.15;100.00
10806;BME280;5455;53.224;6.000;2023-07-24T08:14:18;100152.28;;;21.36;100.00
10806;BME280;5455;53.224;6.000;2023-07-24T08:16:48;100152.84;;;21.56;100.00
10806;BME280;5455;53.224;6.000;2023-07-24T08:19:16;100156.97;;;21.77;100.00
10806;BME280;5455;53.224;6.000;2023-07-24T08:21:43;100148.97;;;21.75;100.00
10806;BME280;5455;53.224;6.000;2023-07-24T08:24:11;100144.72;;;21.83;100.00
10806;BME280;5455;53.224;6.000;2023-07-24T08:26:38;100138.88;;;21.90;100.00
10806;BME280;5455;53.224;6.000;2023-07-24T08:29:06;100138.81;;;22.37;100.00
10806;BME280;5455;53.224;6.000;2023-07-24T08:31:33;100147.03;;;22.75;100.00
10806;BME280;5455;53.224;6.000;2023-07-24T08:34:00;100142.13;;;22.88;100.00
10806;BME280;5455;53.224;6.000;2023-07-24T08:36:28;100140.13;;;22.67;100.00
10806;BME280;5455;53.224;6.000;2023-07-24T08:38:56;100141.34;;;22.23;100.00
10806;BME280;5455;53.224;6.000;2023-07-24T08:41:23;100137.44;;;21.61;100.00
10806;BME280;5455;53.224;6.000;2023-07-24T08:43:51;100127.63;;;21.31;100.00
10806;BME280;5455;53.224;6.000;2023-07-24T08:46:20;100137.72;;;21.28;100.00
10806;BME280;5455;53.224;6.000;2023-07-24T08:48:49;100123.91;;;21.34;100.00
10806;BME280;5455;53.224;6.000;2023-07-24T08:51:17;100130.56;;;21.87;100.00
10806;BME280;5455;53.224;6.000;2023-07-24T08:53:46;100136.84;;;22.69;100.00
10806;BME280;5455;53.224;6.000;2023-07-24T08:56:14;100131.81;;;22.85;100.00
10806;BME280;5455;53.224;6.000;2023-07-24T08:58:42;100137.09;;;22.40;100.00
10806;BME280;5455;53.224;6.000;2023-07-24T09:01:09;100130.13;;;21.88;100.00
10806;BME280;5455;53.224;6.000;2023-07-24T09:03:36;100130.75;;;21.46;100.00
10806;BME280;5455;53.224;6.000;2023-07-24T09:06:04;100136.78;;;21.06;100.00
10806;BME280;5455;53.224;6.000;2023-07-24T09:08:38;100130.06;;;21.04;100.00
10806;BME280;5455;53.224;6.000;2023-07-24T09:11:07;100120.41;;;21.05;100.00
10806;BME280;5455;53.224;6.000;2023-07-24T09:13:36;100132.22;;;21.12;100.00
10806;BME280;5455;53.224;6.000;2023-07-24T09:16:04;100133.56;;;21.20;100.00
10806;BME280;5455;53.224;6.000;2023-07-24T09:18:39;100136.38;;;21.20;100.00
10806;BME280;5455;53.224;6.000;2023-07-24T09:21:08;100135.16;;;21.09;100.00
10806;BME280;5455;53.224;6.000;2023-07-24T09:23:37;100128.03;;;21.04;100.00
10806;BME280;5455;53.224;6.000;2023-07-24T09:26:07;100124.09;;;20.89;100.00
10806;BME280;5455;53.224;6.000;2023-07-24T09:28:35;100123.19;;;20.79;100.00
10806;BME280;5455;53.224;6.000;2023-07-24T09:31:03;100122.41;;;20.79;100.00
10806;BME280;5455;53.224;6.000;2023-07-24T09:33:41;100128.03;;;21.04;100.00
10806;BME280;5455;53.224;6.000;2023-07-24T09:36:11;100121.09;;;21.47;100.00
10806;BME280;5455;53.224;6.000;2023-07-24T09:38:39;100138.00;;;21.68;100.00
10806;BME280;5455;53.224;6.000;2023-07-24T09:41:07;100144.75;;;21.46;100.00
10806;BME280;5455;53.224;6.000;2023-07-24T09:43:34;100136.78;;;21.06;100.00
10806;BME280;5455;53.224;6.000;2023-07-24T09:46:08;100134.75;;;20.81;100.00
10806;BME280;5455;53.224;6.000;2023-07-24T09:48:37;100141.44;;;20.71;100.00
10806;BME280;5455;53.224;6.000;2023-07-24T09:51:11;100128.00;;;20.66;100.00
10806;BME280;5455;53.224;6.000;2023-07-24T09:53:47;100140.91;;;20.64;100.00
10806;BME280;5455;53.224;6.000;2023-07-24T09:56:20;100133.53;;;20.95;100.00
10806;BME280;5455;53.224;6.000;2023-07-24T09:59:06;100127.19;;;21.32;100.00
10806;BME280;5455;53.224;6.000;2023-07-24T10:01:33;100124.75;;;21.69;100.00
10806;BME280;5455;53.224;6.000;2023-07-24T10:04:01;100121.41;;;22.08;100.00
10806;BME280;5455;53.224;6.000;2023-07-24T10:06:31;100123.72;;;22.44;100.00
10806;BME280;5455;53.224;6.000;2023-07-24T10:09:00;100120.56;;;22.85;100.00
10806;BME280;5455;53.224;6.000;2023-07-24T10:11:28;100128.69;;;23.23;100.00
10806;BME280;5455;53.224;6.000;2023-07-24T10:13:55;100129.44;;;23.15;100.00
10806;BME280;5455;53.224;6.000;2023-07-24T10:16:23;100123.25;;;22.45;100.00
10806;BME280;5455;53.224;6.000;2023-07-24T10:18:51;100128.72;;;22.06;100.00
10806;BME280;5455;53.224;6.000;2023-07-24T10:21:26;100130.31;;;21.94;100.00
10806;BME280;5455;53.224;6.000;2023-07-24T10:23:59;100128.47;;;21.66;100.00
10806;BME280;5455;53.224;6.000;2023-07-24T10:26:27;100131.81;;;21.73;100.00
10806;BME280;5455;53.224;6.000;2023-07-24T10:28:55;100130.22;;;21.85;100.00
10806;BME280;5455;53.224;6.000;2023-07-24T10:31:24;100127.88;;;21.96;100.00
10806;BME280;5455;53.224;6.000;2023-07-24T10:33:54;100118.53;;;22.21;100.00
10806;BME280;5455;53.224;6.000;2023-07-24T10:36:23;100118.88;;;22.66;100.00
10806;BME280;5455;53.224;6.000;2023-07-24T10:38:54;100110.56;;;22.84;100.00
10806;BME280;5455;53.224;6.000;2023-07-24T10:41:22;100106.19;;;23.23;100.00
10806;BME280;5455;53.224;6.000;2023-07-24T10:43:52;100117.91;;;23.22;100.00
10806;BME280;5455;53.224;6.000;2023-07-24T10:46:38;100128.22;;;22.85;100.00
10806;BME280;5455;53.224;6.000;2023-07-24T10:49:07;100122.44;;;22.88;100.00
10806;BME280;5455;53.224;6.000;2023-07-24T10:51:35;100123.63;;;23.09;100.00
10806;BME280;5455;53.224;6.000;2023-07-24T10:54:04;100122.59;;;23.16;100.00
10806;BME280;5455;53.224;6.000;2023-07-24T10:56:32;100122.78;;;23.30;100.00
10806;BME280;5455;53.224;6.000;2023-07-24T10:59:03;100125.56;;;23.21;100.00
10806;BME280;5455;53.224;6.000;2023-07-24T11:01:32;100133.91;;;22.72;100.00
10806;BME280;5455;53.224;6.000;2023-07-24T11:04:01;100124.22;;;22.51;100.00
10806;BME280;5455;53.224;6.000;2023-07-24T11:06:29;100124.59;;;22.63;100.00
10806;BME280;5455;53.224;6.000;2023-07-24T11:08:59;100112.91;;;22.86;100.00
10806;BME280;5455;53.224;6.000;2023-07-24T11:11:30;100118.19;;;23.15;100.00
10806;BME280;5455;53.224;6.000;2023-07-24T11:14:01;100119.59;;;22.79;100.00
10806;BME280;5455;53.224;6.000;2023-07-24T11:16:29;100114.03;;;22.45;100.00
10806;BME280;5455;53.224;6.000;2023-07-24T11:19:01;100123.50;;;22.60;100.00
10806;BME280;5455;53.224;6.000;2023-07-24T11:21:29;100126.16;;;23.56;100.00
10806;BME280;5455;53.224;6.000;2023-07-24T11:23:58;100129.09;;;24.10;100.00
10806;BME280;5455;53.224;6.000;2023-07-24T11:26:26;100135.91;;;23.91;100.00
10806;BME280;5455;53.224;6.000;2023-07-24T11:28:54;100137.94;;;23.73;100.00
10806;BME280;5455;53.224;6.000;2023-07-24T11:31:21;100135.59;;;23.80;100.00
10806;BME280;5455;53.224;6.000;2023-07-24T11:33:49;100139.69;;;23.97;100.00
10806;BME280;5455;53.224;6.000;2023-07-24T11:36:18;100136.91;;;24.34;100.00
10806;BME280;5455;53.224;6.000;2023-07-24T11:38:46;100134.25;;;24.48;100.00
10806;BME280;5455;53.224;6.000;2023-07-24T11:41:13;100133.31;;;24.24;100.00
10806;BME280;5455;53.224;6.000;2023-07-24T11:43:46;100125.97;;;24.27;100.00
10806;BME280;5455;53.224;6.000;2023-07-24T11:46:25;100129.06;;;24.47;100.00
10806;BME280;5455;53.224;6.000;2023-07-24T11:48:54;100136.41;;;24.81;100.00
10806;BME280;5455;53.224;6.000;2023-07-24T11:51:27;100127.16;;;24.62;100.00
10806;BME280;5455;53.224;6.000;2023-07-24T11:54:07;100129.38;;;24.31;100.00
10806;BME280;5455;53.224;6.000;2023-07-24T11:56:35;100117.78;;;23.92;100.00
10806;BME280;5455;53.224;6.000;2023-07-24T11:59:13;100121.72;;;24.22;100.00
10806;BME280;5455;53.224;6.000;2023-07-24T12:01:45;100130.00;;;24.07;100.00
10806;BME280;5455;53.224;6.000;2023-07-24T12:04:15;100130.75;;;23.81;100.00
10806;BME280;5455;53.224;6.000;2023-07-24T12:06:42;100135.63;;;23.98;100.00
10806;BME280;5455;53.224;6.000;2023-07-24T12:09:11;100129.09;;;24.10;99.07
10806;BME280;5455;53.224;6.000;2023-07-24T12:11:40;100115.91;;;24.44;100.00
10806;BME280;5455;53.224;6.000;2023-07-24T12:14:13;100116.06;;;25.09;100.00
10806;BME280;5455;53.224;6.000;2023-07-24T12:16:40;100124.72;;;24.97;95.39
10806;BME280;5455;53.224;6.000;2023-07-24T12:19:08;100124.63;;;24.82;95.91
10806;BME280;5455;53.224;6.000;2023-07-24T12:21:35;100133.78;;;24.41;97.07
10806;BME280;5455;53.224;6.000;2023-07-24T12:24:02;100127.50;;;24.28;100.00
10806;BME280;5455;53.224;6.000;2023-07-24T12:26:30;100122.34;;;24.35;100.00
10806;BME280;5455;53.224;6.000;2023-07-24T12:28:57;100145.97;;;24.47;100.00
10806;BME280;5455;53.224;6.000;2023-07-24T12:31:27;100160.38;;;24.40;98.01
10806;BME280;5455;53.224;6.000;2023-07-24T12:33:56;100151.25;;;23.81;100.00
10806;BME280;5455;53.224;6.000;2023-07-24T12:36:23;100152.44;;;23.62;100.00
10806;BME280;5455;53.224;6.000;2023-07-24T12:38:50;100154.69;;;23.76;100.00
10806;BME280;5455;53.224;6.000;2023-07-24T12:41:18;100151.22;;;23.63;100.00
10806;BME280;5455;53.224;6.000;2023-07-24T12:43:45;100149.81;;;23.28;100.00
10806;BME280;5455;53.224;6.000;2023-07-24T12:46:12;100156.44;;;22.60;100.00
10806;BME280;5455;53.224;6.000;2023-07-24T12:48:40;100140.00;;;22.71;100.00
10806;BME280;5455;53.224;6.000;2023-07-24T12:51:07;100160.84;;;22.82;100.00
10806;BME280;5455;53.224;6.000;2023-07-24T12:53:34;100150.16;;;22.77;100.00
10806;BME280;5455;53.224;6.000;2023-07-24T12:56:22;100172.41;;;22.41;100.00
10806;BME280;5455;53.224;6.000;2023-07-24T12:58:49;100168.97;;;22.24;100.00
10806;BME280;5455;53.224;6.000;2023-07-24T13:01:16;100170.50;;;22.04;100.00